sensor_id;sensor_type;location;lat;lon;timestamp;pressure;altitude;pressure_sealevel;temperature;humidity
929;BME280;451;47.988;7.842;2024-01-06T00:06:00;97359.22;;;7.26;100.00
929;BME280;451;47.988;7.842;2024-01-06T00:15:05;97375.88;;;7.10;100.00
929;BME280;451;47.988;7.842;2024-01-06T00:24:09;97383.06;;;7.08;100.00
929;BME280;451;47.988;7.842;2024-01-06T00:33:13;97376.16;;;6.93;100.00
929;BME280;451;47.988;7.842;2024-01-06T00:42:16;97388.28;;;7.08;100.00
929;BME280;451;47.988;7.842;2024-01-06T00:51:21;97409.72;;;7.04;100.00
929;BME280;451;47.988;7.842;2024-01-06T01:00:24;97422.19;;;7.39;100.00
929;BME280;451;47.988;7.842;2024-01-06T01:09:30;97439.44;;;7.03;100.00
929;BME280;451;47.988;7.842;2024-01-06T01:18:33;97441.47;;;6.93;100.00
929;BME280;451;47.988;7.842;2024-01-06T01:27:37;97453.53;;;6.94;100.00
929;BME280;451;47.988;7.842;2024-01-06T01:36:40;97469.13;;;7.10;100.00
929;BME280;451;47.988;7.842;2024-01-06T01:45:45;97468.56;;;6.92;100.00
929;BME280;451;47.988;7.842;2024-01-06T01:54:51;97479.50;;;6.95;100.00
929;BME280;451;47.988;7.842;2024-01-06T02:03:57;97486.94;;;6.75;100.00
929;BME280;451;47.988;7.842;2024-01-06T02:13:07;97482.66;;;6.82;100.00
929;BME280;451;47.988;7.842;2024-01-06T02:22:12;97495.31;;;6.94;100.00
929;BME280;451;47.988;7.842;2024-01-06T02:31:15;97486.03;;;6.60;100.00
929;BME280;451;47.988;7.842;2024-01-06T02:40:19;97506.97;;;6.83;100.00
929;BME280;451;47.988;7.842;2024-01-06T02:49:22;97508.91;;;6.50;100.00
929;BME280;451;47.988;7.842;2024-01-06T02:58:27;97508.22;;;6.56;100.00
929;BME280;451;47.988;7.842;2024-01-06T03:07:30;97498.00;;;6.46;100.00
929;BME280;451;47.988;7.842;2024-01-06T03:16:34;97494.44;;;6.31;100.00
929;BME280;451;47.988;7.842;2024-01-06T03:25:37;97496.88;;;6.33;100.00
929;BME280;451;47.988;7.842;2024-01-06T03:34:42;97497.56;;;6.27;100.00
929;BME280;451;47.988;7.842;2024-01-06T03:43:45;97504.75;;;6.08;100.00
929;BME280;451;47.988;7.842;2024-01-06T03:52:49;97510.28;;;6.22;100.00
929;BME280;451;47.988;7.842;2024-01-06T04:01:52;97499.25;;;5.95;100.00
929;BME280;451;47.988;7.842;2024-01-06T04:10:56;97515.53;;;6.05;100.00
929;BME280;451;47.988;7.842;2024-01-06T04:19:59;97510.50;;;6.04;100.00
929;BME280;451;47.988;7.842;2024-01-06T04:29:04;97516.03;;;6.09;100.00
929;BME280;451;47.988;7.842;2024-01-06T04:38:07;97509.03;;;5.93;100.00
929;BME280;451;47.988;7.842;2024-01-06T04:47:12;97517.19;;;5.98;100.00
929;BME280;451;47.988;7.842;2024-01-06T04:56:15;97523.69;;;6.11;100.00
929;BME280;451;47.988;7.842;2024-01-06T05:05:20;97519.44;;;6.18;100.00
929;BME280;451;47.988;7.842;2024-01-06T05:14:24;97528.91;;;6.11;100.00
929;BME280;451;47.988;7.842;2024-01-06T05:23:29;97528.91;;;6.11;100.00
929;BME280;451;47.988;7.842;2024-01-06T05:32:32;97539.66;;;6.07;100.00
929;BME280;451;47.988;7.842;2024-01-06T05:41:39;97558.56;;;6.10;100.00
929;BME280;451;47.988;7.842;2024-01-06T05:50:42;97569.97;;;6.33;100.00
929;BME280;451;47.988;7.842;2024-01-06T05:59:46;97571.28;;;6.13;100.00
929;BME280;451;47.988;7.842;2024-01-06T06:08:49;97564.78;;;6.08;100.00
929;BME280;451;47.988;7.842;2024-01-06T06:17:53;97578.94;;;6.14;100.00
929;BME280;451;47.988;7.842;2024-01-06T06:26:57;97594.75;;;6.13;100.00
929;BME280;451;47.988;7.842;2024-01-06T06:36:01;97617.91;;;6.40;100.00
929;BME280;451;47.988;7.842;2024-01-06T06:45:06;97626.59;;;6.24;100.00
929;BME280;451;47.988;7.842;2024-01-06T06:54:10;97633.59;;;6.24;100.00
929;BME280;451;47.988;7.842;2024-01-06T07:03:14;97648.59;;;6.22;100.00
929;BME280;451;47.988;7.842;2024-01-06T07:12:19;97652.66;;;6.16;100.00
929;BME280;451;47.988;7.842;2024-01-06T07:21:22;97652.50;;;6.18;100.00
929;BME280;451;47.988;7.842;2024-01-06T07:30:26;97659.19;;;6.28;100.00
929;BME280;451;47.988;7.842;2024-01-06T07:39:29;97667.50;;;6.32;100.00
929;BME280;451;47.988;7.842;2024-01-06T07:48:34;97670.78;;;6.34;100.00
929;BME280;451;47.988;7.842;2024-01-06T07:57:37;97670.28;;;6.38;100.00
929;BME280;451;47.988;7.842;2024-01-06T08:06:41;97664.22;;;6.62;100.00
929;BME280;451;47.988;7.842;2024-01-06T08:15:45;97665.88;;;6.55;100.00
929;BME280;451;47.988;7.842;2024-01-06T08:24:49;97677.56;;;6.92;100.00
929;BME280;451;47.988;7.842;2024-01-06T08:33:52;97684.44;;;6.93;100.00
929;BME280;451;47.988;7.842;2024-01-06T08:42:56;97707.44;;;6.81;100.00
929;BME280;451;47.988;7.842;2024-01-06T08:51:59;97716.09;;;6.89;93.95
929;BME280;451;47.988;7.842;2024-01-06T09:01:04;97731.13;;;7.04;87.54
929;BME280;451;47.988;7.842;2024-01-06T09:10:07;97729.66;;;6.93;87.78
929;BME280;451;47.988;7.842;2024-01-06T09:19:12;97729.91;;;7.31;86.03
929;BME280;451;47.988;7.842;2024-01-06T09:28:15;97729.09;;;7.22;85.41
929;BME280;451;47.988;7.842;2024-01-06T09:37:20;97735.94;;;7.31;84.62
929;BME280;451;47.988;7.842;2024-01-06T09:46:25;97727.38;;;7.53;83.50
929;BME280;451;47.988;7.842;2024-01-06T09:55:30;97738.22;;;7.42;82.03
929;BME280;451;47.988;7.842;2024-01-06T10:04:33;97739.53;;;7.77;80.67
929;BME280;451;47.988;7.842;2024-01-06T10:13:37;97748.59;;;7.58;82.35
929;BME280;451;47.988;7.842;2024-01-06T10:22:41;97738.41;;;7.80;80.92
929;BME280;451;47.988;7.842;2024-01-06T10:31:46;97740.34;;;8.39;78.18
929;BME280;451;47.988;7.842;2024-01-06T10:40:59;97722.97;;;8.16;76.95
929;BME280;451;47.988;7.842;2024-01-06T10:50:06;97704.75;;;8.30;78.56
929;BME280;451;47.988;7.842;2024-01-06T10:59:11;97728.72;;;8.65;74.38
929;BME280;451;47.988;7.842;2024-01-06T11:08:17;97741.88;;;8.03;76.08
929;BME280;451;47.988;7.842;2024-01-06T11:17:51;97726.50;;;8.31;76.15
929;BME280;451;47.988;7.842;2024-01-06T11:26:59;97728.88;;;8.18;77.78
929;BME280;451;47.988;7.842;2024-01-06T11:36:08;97722.78;;;8.48;76.96
929;BME280;451;47.988;7.842;2024-01-06T11:45:13;97727.84;;;8.19;80.37
929;BME280;451;47.988;7.842;2024-01-06T11:54:17;97725.59;;;8.46;77.08
929;BME280;451;47.988;7.842;2024-01-06T12:03:21;97679.13;;;8.40;78.04
929;BME280;451;47.988;7.842;2024-01-06T12:12:25;97713.44;;;8.68;77.80
929;BME280;451;47.988;7.842;2024-01-06T12:21:30;97705.75;;;8.21;81.35
929;BME280;451;47.988;7.842;2024-01-06T12:30:33;97698.28;;;8.18;82.10
929;BME280;451;47.988;7.842;2024-01-06T12:39:38;97692.69;;;7.90;82.03
929;BME280;451;47.988;7.842;2024-01-06T12:48:41;97692.81;;;7.74;81.69
929;BME280;451;47.988;7.842;2024-01-06T12:57:46;97671.72;;;7.37;85.90
929;BME280;451;47.988;7.842;2024-01-06T13:06:49;97705.06;;;7.35;87.16
929;BME280;451;47.988;7.842;2024-01-06T13:15:54;97702.66;;;7.17;90.11
929;BME280;451;47.988;7.842;2024-01-06T13:24:57;97707.28;;;6.99;92.68
929;BME280;451;47.988;7.842;2024-01-06T13:34:02;97713.84;;;6.86;92.62
929;BME280;451;47.988;7.842;2024-01-06T13:43:05;97720.66;;;7.04;89.81
929;BME280;451;47.988;7.842;2024-01-06T13:52:12;97722.00;;;6.92;89.55
929;BME280;451;47.988;7.842;2024-01-06T14:01:15;97725.69;;;7.21;90.17
929;BME280;451;47.988;7.842;2024-01-06T14:10:20;97728.13;;;7.15;90.00
929;BME280;451;47.988;7.842;2024-01-06T14:19:23;97736.66;;;7.01;90.25
929;BME280;451;47.988;7.842;2024-01-06T14:28:27;97736.81;;;7.07;92.89
929;BME280;451;47.988;7.842;2024-01-06T14:37:31;97741.09;;;6.92;95.69
929;BME280;451;47.988;7.842;2024-01-06T14:46:35;97725.41;;;6.43;98.77
929;BME280;451;47.988;7.842;2024-01-06T14:55:39;97742.38;;;6.39;100.00
929;BME280;451;47.988;7.842;2024-01-06T15:04:43;97769.00;;;6.51;100.00
929;BME280;451;47.988;7.842;2024-01-06T15:13:46;97755.47;;;6.64;100.00
929;BME280;451;47.988;7.842;2024-01-06T15:22:51;97775.56;;;6.79;100.00
929;BME280;451;47.988;7.842;2024-01-06T15:31:54;97780.72;;;6.39;100.00
929;BME280;451;47.988;7.842;2024-01-06T15:41:00;97783.19;;;6.40;100.00
929;BME280;451;47.988;7.842;2024-01-06T15:50:04;97789.53;;;6.38;100.00
929;BME280;451;47.988;7.842;2024-01-06T15:59:10;97792.78;;;6.32;100.00
929;BME280;451;47.988;7.842;2024-01-06T16:08:14;97799.28;;;6.20;100.00
929;BME280;451;47.988;7.842;2024-01-06T16:17:18;97801.91;;;6.28;100.00
929;BME280;451;47.988;7.842;2024-01-06T16:26:21;97800.72;;;6.14;100.00
929;BME280;451;47.988;7.842;2024-01-06T16:35:26;97814.47;;;6.24;100.00
929;BME280;451;47.988;7.842;2024-01-06T16:44:29;97818.19;;;6.14;100.00
929;BME280;451;47.988;7.842;2024-01-06T16:53:33;97823.44;;;6.22;100.00
929;BME280;451;47.988;7.842;2024-01-06T17:02:37;97831.31;;;5.62;100.00
929;BME280;451;47.988;7.842;2024-01-06T17:11:42;97836.53;;;5.62;100.00
929;BME280;451;47.988;7.842;2024-01-06T17:20:45;97825.72;;;6.17;100.00
929;BME280;451;47.988;7.842;2024-01-06T17:29:51;97841.13;;;5.42;100.00
929;BME280;451;47.988;7.842;2024-01-06T17:38:55;97818.97;;;5.20;100.00
929;BME280;451;47.988;7.842;2024-01-06T17:47:59;97862.13;;;5.41;100.00
929;BME280;451;47.988;7.842;2024-01-06T17:57:02;97865.84;;;5.38;100.00
929;BME280;451;47.988;7.842;2024-01-06T18:06:07;97865.69;;;5.40;100.00
929;BME280;451;47.988;7.842;2024-01-06T18:15:11;97869.19;;;5.48;100.00
929;BME280;451;47.988;7.842;2024-01-06T18:24:15;97875.94;;;5.59;100.00
929;BME280;451;47.988;7.842;2024-01-06T18:33:18;97867.28;;;5.58;100.00
929;BME280;451;47.988;7.842;2024-01-06T18:42:22;97878.53;;;5.59;100.00
929;BME280;451;47.988;7.842;2024-01-06T18:51:26;97873.06;;;5.70;100.00
929;BME280;451;47.988;7.842;2024-01-06T19:00:31;97868.91;;;5.85;100.00
929;BME280;451;47.988;7.842;2024-01-06T19:09:35;97870.78;;;5.67;100.00
929;BME280;451;47.988;7.842;2024-01-06T19:18:40;97869.75;;;5.60;100.00
929;BME280;451;47.988;7.842;2024-01-06T19:27:43;97879.50;;;5.58;100.00
929;BME280;451;47.988;7.842;2024-01-06T19:36:48;97872.63;;;5.75;100.00
929;BME280;451;47.988;7.842;2024-01-06T19:45:52;97872.09;;;5.71;100.00
929;BME280;451;47.988;7.842;2024-01-06T19:54:56;97879.00;;;5.80;100.00
929;BME280;451;47.988;7.842;2024-01-06T20:04:00;97869.75;;;5.60;100.00
929;BME280;451;47.988;7.842;2024-01-06T20:13:05;97874.53;;;5.47;100.00
929;BME280;451;47.988;7.842;2024-01-06T20:22:09;97865.84;;;5.38;100.00
929;BME280;451;47.988;7.842;2024-01-06T20:31:13;97855.88;;;5.34;100.00
929;BME280;451;47.988;7.842;2024-01-06T20:40:16;97860.78;;;5.11;100.00
929;BME280;451;47.988;7.842;2024-01-06T20:49:21;97866.19;;;5.17;100.00
929;BME280;451;47.988;7.842;2024-01-06T20:58:26;97862.97;;;5.23;100.00
929;BME280;451;47.988;7.842;2024-01-06T21:07:30;97865.81;;;5.12;100.00
929;BME280;451;47.988;7.842;2024-01-06T21:16:38;97854.75;;;5.10;100.00
929;BME280;451;47.988;7.842;2024-01-06T21:25:42;97863.50;;;5.09;100.00
929;BME280;451;47.988;7.842;2024-01-06T21:34:45;97869.78;;;4.99;100.00
929;BME280;451;47.988;7.842;2024-01-06T21:43:50;97854.66;;;5.02;100.00
929;BME280;451;47.988;7.842;2024-01-06T21:52:53;97853.97;;;5.00;100.00
929;BME280;451;47.988;7.842;2024-01-06T22:01:58;97863.81;;;4.88;100.00
929;BME280;451;47.988;7.842;2024-01-06T22:11:01;97841.22;;;4.89;100.00
929;BME280;451;47.988;7.842;2024-01-06T22:20:07;97869.69;;;5.08;100.00
929;BME280;451;47.988;7.842;2024-01-06T22:29:10;97877.56;;;4.81;100.00
929;BME280;451;47.988;7.842;2024-01-06T22:38:14;97873.13;;;4.91;100.00
929;BME280;451;47.988;7.842;2024-01-06T22:47:17;97870.75;;;4.80;100.00
929;BME280;451;47.988;7.842;2024-01-06T22:56:23;97874.25;;;4.88;100.00
929;BME280;451;47.988;7.842;2024-01-06T23:05:26;97860.56;;;4.86;100.00
929;BME280;451;47.988;7.842;2024-01-06T23:14:31;97847.97;;;4.82;100.00
929;BME280;451;47.988;7.842;2024-01-06T23:23:36;97880.25;;;5.24;100.00
929;BME280;451;47.988;7.842;2024-01-06T23:32:42;97881.44;;;5.12;100.00
929;BME280;451;47.988;7.842;2024-01-06T23:41:45;97888.47;;;5.12;100.00
929;BME280;451;47.988;7.842;2024-01-06T23:50:49;97889.81;;;4.98;100.00
929;BME280;451;47.988;7.842;2024-01-06T23:59:52;97887.78;;;5.10;100.00
